Time;durP1;ratioP1;P1;durP2;ratioP2;P2;SDS_P1;SDS_P2;PMS_P1;PMS_P2;Temp;Humidity;BMP_temperature;BMP_pressure;BME280_temperature;BME280_humidity;BME280_pressure;Samples;Min_cycle;Max_cycle;Signal;HPM_P1;HPM_P2
2023/04/25 00:00:25;;;;;;;20.10;7.13;;;7.60;63.40;;;;;;5052226;28;20412;-71
2023/04/25 00:02:50;;;;;;;24.30;7.30;;;7.70;61.90;;;;;;5050750;28;20427;-72
2023/04/25 00:05:17;;;;;;;25.20;7.30;;;7.60;62.40;;;;;;5051861;28;20393;-72
2023/04/25 00:07:42;;;;;;;21.92;6.95;;;7.80;61.50;;;;;;5051906;28;20391;-71
2023/04/25 00:10:10;;;;;;;21.73;8.02;;;7.90;59.40;;;;;;5051903;28;20377;-72
2023/04/25 00:12:36;;;;;;;26.75;7.55;;;7.90;59.40;;;;;;5051432;28;20493;-71
2023/04/25 00:15:02;;;;;;;24.20;7.00;;;8.00;58.60;;;;;;5052119;28;20464;-71
2023/04/25 00:17:28;;;;;;;21.88;7.20;;;8.00;58.30;;;;;;5052018;28;20920;-74
2023/04/25 00:19:54;;;;;;;17.70;6.87;;;8.00;58.70;;;;;;5052055;28;20425;-72
2023/04/25 00:22:20;;;;;;;23.60;7.10;;;8.00;58.50;;;;;;5051945;28;20460;-74
2023/04/25 00:24:46;;;;;;;25.27;7.20;;;8.10;57.80;;;;;;5052655;28;20388;-73
2023/04/25 00:27:11;;;;;;;25.57;7.17;;;8.10;57.70;;;;;;5052353;28;20381;-73
2023/04/25 00:29:37;;;;;;;24.47;6.90;;;8.10;57.30;;;;;;5056011;28;20401;-73
2023/04/25 00:32:02;;;;;;;22.60;7.73;;;8.10;57.40;;;;;;5056560;28;20385;-73
2023/04/25 00:34:28;;;;;;;19.10;7.03;;;8.20;57.20;;;;;;5055768;28;20388;-72
2023/04/25 00:36:54;;;;;;;20.10;6.80;;;8.20;57.30;;;;;;5053272;28;20461;-72
2023/04/25 00:39:19;;;;;;;16.37;6.37;;;8.20;57.30;;;;;;5053446;28;20377;-72
2023/04/25 00:41:45;;;;;;;20.73;7.03;;;8.20;57.60;;;;;;5034690;28;20402;-74
2023/04/25 00:44:11;;;;;;;28.00;7.25;;;8.20;57.70;;;;;;5052389;28;20458;-72
2023/04/25 00:46:39;;;;;;;16.23;6.10;;;8.20;57.50;;;;;;5052845;28;20396;-72
2023/04/25 00:49:05;;;;;;;18.02;6.63;;;8.20;57.30;;;;;;5052087;28;20381;-73
2023/04/25 00:51:32;;;;;;;18.02;6.10;;;8.20;57.30;;;;;;5052982;28;20390;-72
2023/04/25 00:53:58;;;;;;;21.05;6.80;;;8.20;57.10;;;;;;5037604;28;20381;-73
2023/04/25 00:56:24;;;;;;;22.35;7.25;;;8.20;57.60;;;;;;5053291;28;20403;-73
2023/04/25 00:58:55;;;;;;;33.60;8.13;;;8.20;58.00;;;;;;5051166;28;20389;-71
2023/04/25 01:01:21;;;;;;;20.88;6.78;;;8.20;58.30;;;;;;5050815;28;20588;-72
2023/04/25 01:03:47;;;;;;;18.80;6.80;;;8.20;58.00;;;;;;5050969;28;20461;-71
2023/04/25 01:06:12;;;;;;;16.67;6.90;;;8.10;58.40;;;;;;5051029;28;20385;-72
2023/04/25 01:08:39;;;;;;;18.73;6.53;;;8.10;57.90;;;;;;5051136;28;20405;-72
2023/04/25 01:11:05;;;;;;;16.50;6.32;;;8.10;59.30;;;;;;5050389;28;20385;-72
2023/04/25 01:13:32;;;;;;;22.30;7.07;;;8.10;58.60;;;;;;5051037;28;20476;-71
2023/04/25 01:15:58;;;;;;;22.23;6.97;;;8.10;58.60;;;;;;5051302;28;20432;-73
2023/04/25 01:18:24;;;;;;;20.00;6.20;;;8.10;59.20;;;;;;5052340;28;20405;-72
2023/04/25 01:20:53;;;;;;;23.07;6.47;;;8.20;58.20;;;;;;5051014;28;20437;-74
2023/04/25 01:23:20;;;;;;;18.42;6.32;;;8.20;58.00;;;;;;5052333;28;20443;-72
2023/04/25 01:25:46;;;;;;;22.02;6.22;;;8.20;57.50;;;;;;5051603;28;20385;-73
2023/04/25 01:28:12;;;;;;;20.63;6.00;;;8.10;58.50;;;;;;5051388;28;20778;-73
2023/04/25 01:30:38;;;;;;;18.63;6.40;;;8.10;59.70;;;;;;5050948;28;20381;-72
2023/04/25 01:33:05;;;;;;;22.95;6.85;;;8.10;60.20;;;;;;5052174;28;20389;-73
2023/04/25 01:35:31;;;;;;;22.77;6.70;;;8.10;60.20;;;;;;5052322;28;20381;-73
2023/04/25 01:37:57;;;;;;;21.30;6.40;;;8.10;60.00;;;;;;5033898;28;20393;-73
2023/04/25 01:40:24;;;;;;;19.85;6.88;;;8.10;60.50;;;;;;5051329;28;20445;-74
2023/04/25 01:42:51;;;;;;;16.42;6.97;;;8.10;60.30;;;;;;5050463;28;20434;-72
2023/04/25 01:45:17;;;;;;;17.73;6.75;;;8.10;60.10;;;;;;5050311;28;20446;-73
2023/04/25 01:47:43;;;;;;;22.00;7.30;;;8.10;61.30;;;;;;5050590;28;20388;-73
2023/04/25 01:50:11;;;;;;;20.02;6.95;;;8.10;60.70;;;;;;5050477;28;20377;-73
2023/04/25 01:52:36;;;;;;;19.35;7.30;;;8.10;61.20;;;;;;5050272;28;20389;-73
2023/04/25 01:55:02;;;;;;;18.58;7.25;;;8.10;62.10;;;;;;5051046;28;20407;-73
2023/04/25 01:57:28;;;;;;;18.92;8.25;;;8.10;62.60;;;;;;5057594;28;20396;-71
2023/04/25 02:00:02;;;;;;;13.82;7.18;;;8.10;61.70;;;;;;5066335;28;20385;-72
2023/04/25 02:02:28;;;;;;;25.50;8.73;;;8.00;61.90;;;;;;5069301;28;20381;-71
2023/04/25 02:04:54;;;;;;;28.17;9.40;;;7.90;63.70;;;;;;5056795;28;20479;-72
2023/04/25 02:07:20;;;;;;;21.30;7.82;;;7.90;65.80;;;;;;5050245;28;20881;-72
2023/04/25 02:09:46;;;;;;;24.05;8.40;;;7.90;66.10;;;;;;5050617;28;20389;-72
2023/04/25 02:12:11;;;;;;;20.92;8.45;;;7.90;65.30;;;;;;5049695;28;20932;-71
2023/04/25 02:14:37;;;;;;;22.92;8.23;;;7.90;65.00;;;;;;5050224;28;20397;-72
2023/04/25 02:17:02;;;;;;;21.87;8.80;;;7.90;64.70;;;;;;5050225;28;20400;-71
2023/04/25 02:19:28;;;;;;;16.17;8.10;;;7.90;66.40;;;;;;5050198;28;20754;-73
2023/04/25 02:21:54;;;;;;;17.67;7.00;;;7.90;65.60;;;;;;5049564;28;20409;-73
2023/04/25 02:24:20;;;;;;;15.50;6.90;;;7.80;65.90;;;;;;5049952;28;20389;-72
2023/04/25 02:26:46;;;;;;;21.73;8.32;;;7.80;66.80;;;;;;5052325;28;20391;-73
2023/04/25 02:29:12;;;;;;;19.42;7.50;;;8.00;63.20;;;;;;5053797;28;20374;-73
2023/04/25 02:31:38;;;;;;;21.88;6.47;;;8.00;62.60;;;;;;5053459;28;20460;-72
2023/04/25 02:34:04;;;;;;;13.30;6.27;;;8.00;63.60;;;;;;5053632;28;20933;-73
2023/04/25 02:36:32;;;;;;;16.23;6.60;;;7.90;61.80;;;;;;5035751;28;20758;-72
2023/04/25 02:38:57;;;;;;;23.17;7.00;;;7.90;62.00;;;;;;5036344;28;20845;-71
2023/04/25 02:41:23;;;;;;;14.40;5.60;;;7.80;62.50;;;;;;5052977;28;20441;-71
2023/04/25 02:43:48;;;;;;;13.70;5.37;;;7.70;62.80;;;;;;5053941;28;20396;-71
2023/04/25 02:46:14;;;;;;;13.60;4.50;;;7.70;63.90;;;;;;5053576;28;20854;-72
2023/04/25 02:48:40;;;;;;;12.63;4.77;;;7.60;64.60;;;;;;5062173;28;20995;-71
2023/04/25 02:51:05;;;;;;;13.55;4.25;;;7.50;64.90;;;;;;5073497;28;20416;-71
2023/04/25 02:53:31;;;;;;;12.32;4.90;;;7.50;66.70;;;;;;5080962;28;20392;-71
2023/04/25 02:55:58;;;;;;;24.23;5.95;;;7.40;67.70;;;;;;5092841;28;20391;-73
2023/04/25 02:58:23;;;;;;;14.82;5.45;;;7.40;68.10;;;;;;5077305;28;20411;-71
2023/04/25 03:00:49;;;;;;;17.10;5.33;;;7.40;68.70;;;;;;5094407;28;20419;-73
2023/04/25 03:03:17;;;;;;;14.13;5.50;;;7.40;69.30;;;;;;5089349;28;20395;-73
2023/04/25 03:05:46;;;;;;;15.60;5.75;;;7.30;70.90;;;;;;5088357;28;20757;-74
2023/04/25 03:08:12;;;;;;;12.18;5.70;;;7.30;71.90;;;;;;5076351;28;20541;-75
2023/04/25 03:10:38;;;;;;;21.85;6.53;;;7.20;72.80;;;;;;5075550;28;20482;-74
2023/04/25 03:13:04;;;;;;;15.90;6.22;;;7.20;73.70;;;;;;5090923;28;20486;-74
2023/04/25 03:15:31;;;;;;;14.95;6.13;;;7.10;74.80;;;;;;5090701;28;20400;-75
2023/04/25 03:17:56;;;;;;;15.30;6.10;;;7.10;75.90;;;;;;5075627;28;20392;-75
2023/04/25 03:20:22;;;;;;;19.40;7.30;;;7.10;76.70;;;;;;5056851;28;20404;-75
2023/04/25 03:22:47;;;;;;;15.20;7.30;;;7.00;77.10;;;;;;5074360;28;20384;-74
2023/04/25 03:25:13;;;;;;;18.03;6.50;;;7.00;77.40;;;;;;5074234;28;20379;-73
2023/04/25 03:27:38;;;;;;;14.90;6.57;;;7.00;77.60;;;;;;5073359;28;20384;-75
2023/04/25 03:30:05;;;;;;;24.85;6.80;;;7.00;78.30;;;;;;5073148;28;20749;-73
2023/04/25 03:32:30;;;;;;;21.37;6.83;;;6.90;78.60;;;;;;5072475;28;20412;-74
2023/04/25 03:34:56;;;;;;;19.83;6.83;;;6.90;79.30;;;;;;5072942;28;20379;-74
2023/04/25 03:37:21;;;;;;;22.70;7.73;;;6.90;80.20;;;;;;5071919;28;20379;-73
2023/04/25 03:39:47;;;;;;;19.50;7.72;;;6.90;80.50;;;;;;5072833;28;20380;-71
2023/04/25 03:42:12;;;;;;;19.17;7.78;;;6.90;81.00;;;;;;5054025;28;20812;-72
2023/04/25 03:44:38;;;;;;;20.77;7.45;;;7.00;81.20;;;;;;5072755;28;20888;-75
2023/04/25 03:47:03;;;;;;;20.58;7.90;;;7.00;81.00;;;;;;5072542;28;20718;-75
2023/04/25 03:49:29;;;;;;;20.77;9.20;;;6.90;81.70;;;;;;5072570;28;20814;-73
2023/04/25 03:51:55;;;;;;;20.25;7.18;;;6.90;82.30;;;;;;5072223;28;20380;-75
2023/04/25 03:54:20;;;;;;;25.00;8.37;;;6.90;82.40;;;;;;5072304;28;20392;-74
2023/04/25 03:56:46;;;;;;;26.97;8.17;;;6.80;83.40;;;;;;5072337;28;20379;-75
2023/04/25 03:59:11;;;;;;;22.73;8.20;;;6.80;84.60;;;;;;5072240;28;20399;-73
2023/04/25 04:01:37;;;;;;;24.80;9.50;;;6.70;85.60;;;;;;5071381;28;20450;-74
2023/04/25 04:04:03;;;;;;;23.23;7.50;;;6.70;86.50;;;;;;5071997;28;20709;-73
2023/04/25 04:06:28;;;;;;;27.55;8.68;;;6.70;85.60;;;;;;5072270;28;20409;-74
2023/04/25 04:08:54;;;;;;;22.90;8.40;;;6.70;86.40;;;;;;5054687;28;20376;-72
2023/04/25 04:11:20;;;;;;;24.47;8.80;;;6.70;86.80;;;;;;5073579;28;20380;-75
2023/04/25 04:13:46;;;;;;;24.35;8.20;;;6.60;86.80;;;;;;5074144;28;20407;-73
2023/04/25 04:16:11;;;;;;;26.33;8.98;;;6.60;87.20;;;;;;5072475;28;20396;-74
2023/04/25 04:18:37;;;;;;;25.95;9.07;;;6.70;87.20;;;;;;5074532;28;20383;-74
2023/04/25 04:21:02;;;;;;;33.67;8.63;;;6.70;86.80;;;;;;5072821;28;20403;-72
2023/04/25 04:23:28;;;;;;;20.50;7.90;;;6.70;86.40;;;;;;5053758;28;20411;-72
2023/04/25 04:25:54;;;;;;;29.60;8.20;;;6.80;84.60;;;;;;5071624;28;20376;-74
2023/04/25 04:28:21;;;;;;;27.95;8.40;;;6.80;84.20;;;;;;5071560;28;20433;-75
2023/04/25 04:30:47;;;;;;;24.23;8.68;;;6.80;83.30;;;;;;5053446;28;20396;-73
2023/04/25 04:33:14;;;;;;;37.78;9.18;;;6.80;83.10;;;;;;5071344;28;20432;-74
2023/04/25 04:35:41;;;;;;;25.20;8.80;;;6.80;83.70;;;;;;5072068;28;20861;-75
2023/04/25 04:38:07;;;;;;;29.33;7.95;;;6.80;83.80;;;;;;5071810;28;20410;-73
2023/04/25 04:40:32;;;;;;;33.47;9.37;;;6.70;83.90;;;;;;5072814;28;20399;-74
2023/04/25 04:42:58;;;;;;;29.30;8.67;;;6.70;84.60;;;;;;5071824;28;20384;-76
2023/04/25 04:45:23;;;;;;;26.63;7.47;;;6.70;85.00;;;;;;5072360;28;20376;-74
2023/04/25 04:47:49;;;;;;;29.20;9.13;;;6.70;85.10;;;;;;5072496;28;20376;-75
2023/04/25 04:50:16;;;;;;;23.33;9.05;;;6.70;84.50;;;;;;5072373;28;20387;-73
2023/04/25 04:52:41;;;;;;;26.80;8.45;;;6.70;83.90;;;;;;5071374;28;20380;-73
2023/04/25 04:55:08;;;;;;;23.35;8.30;;;6.70;83.90;;;;;;5072813;28;20783;-74
2023/04/25 04:57:34;;;;;;;29.42;9.65;;;6.70;83.80;;;;;;5077052;28;20861;-74
2023/04/25 05:00:00;;;;;;;25.92;8.38;;;6.80;83.40;;;;;;5056023;28;20396;-73
2023/04/25 05:02:26;;;;;;;27.42;9.20;;;6.80;82.30;;;;;;5071774;28;20395;-74
2023/04/25 05:04:52;;;;;;;30.00;8.80;;;6.80;82.60;;;;;;5070775;28;20390;-74
2023/04/25 05:07:18;;;;;;;27.10;8.82;;;6.80;82.00;;;;;;5071028;28;20459;-74
2023/04/25 05:09:44;;;;;;;28.65;8.25;;;6.80;81.90;;;;;;5071361;28;20420;-75
2023/04/25 05:12:10;;;;;;;24.43;7.70;;;6.80;81.90;;;;;;5052223;28;20910;-72
2023/04/25 05:14:47;;;;;;;29.75;9.15;;;6.80;80.70;;;;;;5073847;28;20392;-74
2023/04/25 05:17:12;;;;;;;29.85;8.90;;;6.80;80.20;;;;;;5046909;28;20392;-72
2023/04/25 05:19:39;;;;;;;28.03;8.50;;;6.80;81.20;;;;;;5070919;28;20390;-73
2023/04/25 05:22:04;;;;;;;31.45;8.88;;;6.90;79.20;;;;;;5069959;28;20423;-72
2023/04/25 05:24:30;;;;;;;28.13;7.67;;;7.00;77.70;;;;;;5070765;28;20407;-75
2023/04/25 05:26:56;;;;;;;25.95;8.93;;;7.00;76.20;;;;;;5070948;28;20383;-72
2023/04/25 05:29:22;;;;;;;28.55;8.23;;;7.00;76.20;;;;;;5070756;28;20376;-74
2023/04/25 05:31:48;;;;;;;28.93;8.37;;;7.00;77.10;;;;;;5070064;28;20891;-72
2023/04/25 05:34:13;;;;;;;19.20;7.80;;;7.00;76.90;;;;;;5070566;28;20780;-72
2023/04/25 05:36:39;;;;;;;27.27;7.57;;;7.00;75.50;;;;;;5071556;28;20383;-74
2023/04/25 05:39:06;;;;;;;23.83;8.20;;;7.00;73.50;;;;;;5071591;28;20942;-75
2023/04/25 05:41:31;;;;;;;22.65;7.57;;;6.90;74.70;;;;;;5070305;28;20399;-72
2023/04/25 05:43:57;;;;;;;21.10;7.20;;;6.90;75.00;;;;;;5071008;28;20383;-73
2023/04/25 05:46:22;;;;;;;32.30;9.57;;;6.90;73.20;;;;;;5071097;28;20382;-73
2023/04/25 05:48:48;;;;;;;29.73;7.77;;;7.00;73.20;;;;;;5071791;28;20388;-73
2023/04/25 05:51:13;;;;;;;26.40;8.57;;;7.10;71.70;;;;;;5071057;28;20456;-72
2023/04/25 05:53:39;;;;;;;23.43;8.73;;;7.40;70.60;;;;;;5075159;28;20388;-74
2023/04/25 05:56:05;;;;;;;39.37;8.00;;;7.50;65.80;;;;;;5075540;28;20573;-74
2023/04/25 05:58:30;;;;;;;25.83;7.60;;;7.60;63.50;;;;;;5074348;28;20383;-73
2023/04/25 06:00:56;;;;;;;28.02;7.40;;;7.70;61.20;;;;;;5075311;28;20424;-73
2023/04/25 06:03:22;;;;;;;23.42;7.68;;;7.90;60.90;;;;;;5058205;28;20895;-72
2023/04/25 06:05:48;;;;;;;22.95;7.97;;;7.90;58.10;;;;;;5075251;28;20437;-73
2023/04/25 06:08:13;;;;;;;29.85;8.77;;;7.90;58.20;;;;;;5074874;28;20380;-71
2023/04/25 06:10:39;;;;;;;28.42;7.80;;;7.90;57.70;;;;;;5086313;28;20400;-72
2023/04/25 06:13:05;;;;;;;32.15;8.95;;;8.00;55.90;;;;;;5078985;28;20434;-71
2023/04/25 06:15:32;;;;;;;24.63;7.65;;;8.10;56.60;;;;;;5085392;28;20820;-72
2023/04/25 06:17:57;;;;;;;20.88;7.57;;;8.00;55.30;;;;;;5076271;28;20384;-73
2023/04/25 06:20:24;;;;;;;23.70;6.78;;;8.10;54.80;;;;;;5075427;28;20406;-73
2023/04/25 06:22:51;;;;;;;25.50;7.15;;;8.20;52.50;;;;;;5073857;28;20390;-72
2023/04/25 06:25:17;;;;;;;26.40;8.05;;;8.10;52.90;;;;;;5074129;28;20441;-73
2023/04/25 06:27:43;;;;;;;25.47;8.03;;;8.00;53.50;;;;;;5075524;28;20572;-74
2023/04/25 06:30:09;;;;;;;28.17;7.68;;;8.10;53.70;;;;;;5074393;28;20415;-73
2023/04/25 06:32:35;;;;;;;27.25;8.45;;;8.10;53.60;;;;;;5073601;28;20387;-73
2023/04/25 06:35:00;;;;;;;23.27;7.80;;;8.10;53.60;;;;;;5073904;28;20414;-72
2023/04/25 06:37:26;;;;;;;21.38;7.88;;;8.10;50.90;;;;;;5056007;28;20398;-73
2023/04/25 06:39:52;;;;;;;26.17;9.03;;;7.90;52.00;;;;;;5073819;28;20406;-73
2023/04/25 06:42:17;;;;;;;22.70;9.63;;;7.80;54.40;;;;;;5072941;28;20400;-74
2023/04/25 06:44:43;;;;;;;27.98;7.90;;;7.90;52.90;;;;;;5074224;28;20423;-74
2023/04/25 06:47:09;;;;;;;26.42;7.30;;;7.90;51.90;;;;;;5073503;28;20477;-74
2023/04/25 06:49:34;;;;;;;21.73;6.55;;;8.10;52.20;;;;;;5073305;28;20384;-72
2023/04/25 06:52:00;;;;;;;17.10;5.63;;;8.10;50.00;;;;;;5073169;28;20382;-71
2023/04/25 06:54:27;;;;;;;22.52;5.78;;;8.10;49.00;;;;;;5055972;28;20408;-73
2023/04/25 06:56:53;;;;;;;20.45;5.10;;;8.00;49.80;;;;;;5073338;28;20391;-73
2023/04/25 06:59:19;;;;;;;24.45;6.63;;;7.90;48.90;;;;;;5073563;28;20745;-73
2023/04/25 07:01:45;;;;;;;24.53;5.80;;;7.90;50.60;;;;;;5073002;28;20395;-74
2023/04/25 07:04:10;;;;;;;16.55;5.80;;;7.80;49.70;;;;;;5074047;28;20441;-74
2023/04/25 07:06:42;;;;;;;20.67;5.97;;;7.90;50.00;;;;;;5074005;28;20380;-73
2023/04/25 07:09:11;;;;;;;30.63;7.70;;;7.90;50.40;;;;;;5073501;28;20845;-73
2023/04/25 07:11:36;;;;;;;19.88;6.50;;;8.10;48.70;;;;;;5073074;28;20388;-73
2023/04/25 07:14:03;;;;;;;26.13;6.27;;;8.20;50.00;;;;;;5072491;28;20979;-73
2023/04/25 07:16:28;;;;;;;24.25;6.55;;;8.30;49.20;;;;;;5073676;28;20396;-73
2023/04/25 07:18:54;;;;;;;20.10;5.40;;;8.50;46.90;;;;;;5073367;28;20398;-72
2023/04/25 07:21:19;;;;;;;22.90;6.10;;;8.50;42.40;;;;;;5075158;28;20839;-74
2023/04/25 07:23:45;;;;;;;22.43;5.10;;;8.60;41.40;;;;;;5077885;28;20419;-72
2023/04/25 07:26:11;;;;;;;19.67;5.40;;;8.90;39.40;;;;;;5075524;28;20405;-74
2023/04/25 07:28:36;;;;;;;11.30;3.60;;;8.80;38.90;;;;;;5074427;28;20383;-74
2023/04/25 07:31:02;;;;;;;19.77;5.63;;;8.80;39.20;;;;;;5073086;28;20392;-74
2023/04/25 07:33:28;;;;;;;18.77;6.47;;;9.10;39.30;;;;;;5073738;28;20391;-73
2023/04/25 07:35:55;;;;;;;22.58;6.68;;;9.30;38.00;;;;;;5073600;28;20408;-72
2023/04/25 07:38:21;;;;;;;16.50;5.35;;;9.50;39.50;;;;;;5073328;28;20384;-71
2023/04/25 07:40:48;;;;;;;24.13;8.20;;;9.30;37.60;;;;;;5074161;28;20415;-74
2023/04/25 07:43:16;;;;;;;22.50;7.75;;;8.90;38.80;;;;;;5055331;28;20761;-73
2023/04/25 07:45:42;;;;;;;19.50;7.13;;;8.80;40.00;;;;;;5056254;28;20387;-74
2023/04/25 07:48:08;;;;;;;22.63;7.07;;;8.80;40.80;;;;;;5073096;28;20437;-73
2023/04/25 07:50:33;;;;;;;21.48;6.55;;;8.80;40.30;;;;;;5072897;28;20915;-73
2023/04/25 07:52:59;;;;;;;16.38;4.53;;;8.80;37.70;;;;;;5075558;28;20386;-73
2023/04/25 07:55:25;;;;;;;17.90;4.45;;;8.70;36.80;;;;;;5076670;28;20488;-74
2023/04/25 07:57:50;;;;;;;11.43;4.22;;;8.70;36.70;;;;;;5075489;28;20418;-73
2023/04/25 08:00:16;;;;;;;14.00;4.13;;;8.70;36.50;;;;;;5078268;28;20395;-73
2023/04/25 08:02:41;;;;;;;17.88;4.82;;;8.80;35.90;;;;;;5079255;28;20407;-72
2023/04/25 08:05:11;;;;;;;17.67;5.97;;;8.80;35.50;;;;;;5080413;28;20744;-73
2023/04/25 08:07:37;;;;;;;24.33;6.72;;;9.00;33.20;;;;;;5081360;28;20406;-72
2023/04/25 08:10:03;;;;;;;27.45;6.28;;;9.40;33.90;;;;;;5078913;28;20387;-73
2023/04/25 08:12:29;;;;;;;21.00;6.10;;;9.70;31.50;;;;;;5075967;28;20457;-74
2023/04/25 08:14:54;;;;;;;19.97;6.43;;;10.00;28.70;;;;;;5079615;28;20376;-73
2023/04/25 08:17:20;;;;;;;21.53;6.20;;;10.00;26.80;;;;;;5060818;28;20390;-72
2023/04/25 08:19:45;;;;;;;24.43;6.53;;;9.80;28.70;;;;;;5077100;28;20388;-73
2023/04/25 08:22:12;;;;;;;11.67;4.40;;;9.60;28.20;;;;;;5082201;28;20464;-72
2023/04/25 08:24:38;;;;;;;13.80;4.73;;;9.50;27.30;;;;;;5083325;28;20791;-72
2023/04/25 08:27:03;;;;;;;20.43;4.40;;;9.50;28.50;;;;;;5082908;28;20422;-72
2023/04/25 08:29:29;;;;;;;20.03;5.50;;;9.50;29.10;;;;;;5058887;28;20683;-74
2023/04/25 08:31:54;;;;;;;18.80;5.57;;;9.80;28.90;;;;;;5076403;28;20384;-74
2023/04/25 08:34:20;;;;;;;14.30;4.77;;;10.10;28.00;;;;;;5076465;28;20391;-75
2023/04/25 08:36:46;;;;;;;11.68;4.20;;;10.50;27.40;;;;;;5076373;28;20391;-74
2023/04/25 08:39:11;;;;;;;24.23;8.85;;;10.60;24.90;;;;;;5058374;28;20731;-73
2023/04/25 08:41:37;;;;;;;15.75;5.03;;;10.60;25.80;;;;;;5076949;28;20391;-73
2023/04/25 08:44:04;;;;;;;16.98;6.32;;;10.20;23.80;;;;;;5077888;28;20384;-73
2023/04/25 08:46:31;;;;;;;23.13;8.23;;;10.00;26.10;;;;;;5058947;28;20388;-74
2023/04/25 08:49:01;;;;;;;20.45;6.15;;;9.90;27.20;;;;;;5075365;28;20371;-74
2023/04/25 08:51:30;;;;;;;29.10;13.57;;;9.90;27.30;;;;;;5078322;28;20442;-73
2023/04/25 08:54:02;;;;;;;23.52;5.97;;;10.10;27.40;;;;;;5079046;28;20384;-75
2023/04/25 08:56:28;;;;;;;21.00;5.50;;;10.30;22.30;;;;;;5044240;28;20514;-72
2023/04/25 08:58:55;;;;;;;29.73;8.95;;;10.20;21.50;;;;;;5076431;28;20867;-73
2023/04/25 09:01:21;;;;;;;24.67;7.30;;;10.00;21.70;;;;;;5076962;28;20404;-75
2023/04/25 09:03:49;;;;;;;32.72;8.80;;;10.20;22.50;;;;;;5079811;28;20435;-75
2023/04/25 09:06:16;;;;;;;17.63;6.30;;;10.50;20.30;;;;;;5075858;28;20908;-73
2023/04/25 09:08:41;;;;;;;19.23;4.25;;;10.90;20.30;;;;;;5073037;28;20380;-74
2023/04/25 09:11:07;;;;;;;17.40;5.37;;;10.90;18.60;;;;;;5071517;28;20424;-72
2023/04/25 09:13:33;;;;;;;16.48;4.88;;;11.30;20.00;;;;;;5055235;28;20400;-75
2023/04/25 09:15:58;;;;;;;13.40;4.57;;;11.40;19.90;;;;;;5072694;28;20458;-74
2023/04/25 09:18:29;;;;;;;11.30;3.43;;;11.60;18.90;;;;;;5072579;28;20390;-73
2023/04/25 09:21:11;;;;;;;12.98;3.20;;;11.20;18.80;;;;;;5076119;28;20495;-73
2023/04/25 09:23:44;;;;;;;10.82;3.40;;;10.60;20.00;;;;;;5078339;28;20380;-74
2023/04/25 09:26:15;;;;;;;9.40;3.20;;;10.60;21.60;;;;;;5079175;28;20479;-74
2023/04/25 09:28:42;;;;;;;13.18;4.00;;;10.40;21.50;;;;;;5076369;28;20394;-74
2023/04/25 09:31:11;;;;;;;10.25;3.55;;;10.50;23.20;;;;;;5072991;28;20398;-74
2023/04/25 09:33:37;;;;;;;11.55;2.40;;;10.60;21.50;;;;;;5073133;28;20386;-75
2023/04/25 09:36:04;;;;;;;12.13;3.20;;;10.70;21.20;;;;;;5074387;28;20388;-75
2023/04/25 09:38:31;;;;;;;12.68;3.97;;;10.80;19.90;;;;;;5061298;28;20395;-74
2023/04/25 09:40:57;;;;;;;9.73;3.00;;;10.70;20.20;;;;;;5075413;28;20533;-75
2023/04/25 09:43:24;;;;;;;10.23;3.72;;;10.90;19.40;;;;;;5073971;28;20490;-75
2023/04/25 09:45:51;;;;;;;12.13;3.00;;;11.00;19.00;;;;;;5060739;28;20388;-73
2023/04/25 09:48:18;;;;;;;8.82;3.10;;;10.90;19.80;;;;;;5079297;28;20405;-75
2023/04/25 09:50:45;;;;;;;13.90;3.80;;;11.30;20.00;;;;;;5079014;28;20779;-73
2023/04/25 09:53:10;;;;;;;14.13;4.13;;;11.50;18.90;;;;;;5074551;28;20395;-74
2023/04/25 09:55:37;;;;;;;14.53;3.80;;;11.50;19.10;;;;;;5072325;28;20474;-75
2023/04/25 09:58:08;;;;;;;9.20;2.70;;;11.70;18.50;;;;;;5072577;28;20391;-74
2023/04/25 10:00:35;;;;;;;6.73;2.50;;;11.50;15.20;;;;;;5072565;28;20403;-75
2023/04/25 10:03:05;;;;;;;8.18;3.15;;;11.30;16.90;;;;;;5072464;28;20798;-74
2023/04/25 10:05:35;;;;;;;10.32;2.95;;;11.60;17.10;;;;;;5073521;28;20375;-72
2023/04/25 10:08:03;;;;;;;9.10;3.08;;;11.30;16.40;;;;;;5054799;28;20388;-74
2023/04/25 10:10:32;;;;;;;8.82;3.10;;;11.60;16.20;;;;;;5072480;28;20423;-73
2023/04/25 10:12:58;;;;;;;7.22;2.25;;;12.00;15.10;;;;;;5071828;28;20387;-74
2023/04/25 10:15:25;;;;;;;9.45;2.55;;;11.30;15.60;;;;;;5072298;28;20386;-74
2023/04/25 10:17:50;;;;;;;7.73;2.70;;;10.90;14.20;;;;;;5073579;28;20432;-74
2023/04/25 10:20:16;;;;;;;14.10;2.78;;;11.00;15.90;;;;;;5072796;28;20400;-73
2023/04/25 10:22:45;;;;;;;11.88;2.70;;;11.20;14.50;;;;;;5072219;28;20899;-75
2023/04/25 10:25:11;;;;;;;4.57;2.20;;;11.40;14.30;;;;;;5073845;28;20380;-76
2023/04/25 10:27:38;;;;;;;10.63;2.20;;;11.20;15.10;;;;;;5073002;28;20387;-76
2023/04/25 10:30:14;;;;;;;8.13;2.50;;;11.10;14.60;;;;;;5071968;28;20462;-76
2023/04/25 10:32:42;;;;;;;6.68;2.10;;;11.00;14.70;;;;;;5071917;28;20368;-75
2023/04/25 10:35:16;;;;;;;10.67;1.90;;;11.00;15.70;;;;;;5074236;28;20380;-74
2023/04/25 10:38:12;;;;;;;8.68;2.17;;;11.40;15.40;;;;;;5075118;28;20375;-77
2023/04/25 10:40:38;;;;;;;7.50;2.70;;;11.40;14.40;;;;;;5074616;28;20408;-75
2023/04/25 10:43:31;;;;;;;8.93;2.20;;;11.30;14.10;;;;;;5073107;28;20388;-73
2023/04/25 10:46:00;;;;;;;5.77;1.77;;;11.30;14.90;;;;;;5082532;28;20438;-75
2023/04/25 10:48:26;;;;;;;11.73;2.33;;;11.30;13.40;;;;;;5068603;28;20457;-74
2023/04/25 10:51:10;;;;;;;7.78;2.08;;;11.50;14.20;;;;;;5087928;28;20456;-72
2023/04/25 10:53:36;;;;;;;5.72;1.90;;;11.70;14.50;;;;;;5084565;28;20388;-75
2023/04/25 10:56:16;;;;;;;8.23;2.20;;;12.00;14.20;;;;;;5082289;28;20423;-76
2023/04/25 10:58:43;;;;;;;6.88;1.80;;;12.70;12.30;;;;;;5056579;28;20421;-74
2023/04/25 11:01:09;;;;;;;6.03;1.65;;;12.50;12.20;;;;;;5075675;28;20411;-76
2023/04/25 11:03:42;;;;;;;6.60;2.20;;;12.10;12.10;;;;;;5077594;28;20753;-74
2023/04/25 11:06:22;;;;;;;7.05;2.30;;;12.00;12.30;;;;;;5058398;28;20394;-75
2023/04/25 11:08:49;;;;;;;7.00;2.05;;;12.10;12.50;;;;;;5075376;28;20481;-76
2023/04/25 11:11:17;;;;;;;3.63;1.50;;;11.90;12.50;;;;;;5074429;28;20415;-76
2023/04/25 11:13:43;;;;;;;8.00;2.42;;;11.30;13.80;;;;;;5075102;28;20395;-75
2023/04/25 11:16:09;;;;;;;3.50;2.10;;;11.30;14.60;;;;;;5075177;28;20872;-76
2023/04/25 11:18:35;;;;;;;10.30;2.30;;;11.20;14.60;;;;;;5075494;28;20391;-74
2023/04/25 11:21:02;;;;;;;6.63;2.20;;;11.60;14.60;;;;;;5074416;28;20473;-73
2023/04/25 11:23:29;;;;;;;5.93;1.80;;;11.90;15.00;;;;;;5075563;28;20372;-75
2023/04/25 11:25:55;;;;;;;6.32;1.92;;;11.90;14.70;;;;;;5080045;28;20455;-75
2023/04/25 11:28:22;;;;;;;4.10;1.80;;;11.90;12.80;;;;;;5084252;28;20384;-73
2023/04/25 11:30:50;;;;;;;5.95;1.90;;;11.50;13.90;;;;;;5087988;28;20402;-71
2023/04/25 11:33:16;;;;;;;6.25;1.88;;;11.80;14.20;;;;;;5089573;28;20463;-74
2023/04/25 11:35:41;;;;;;;10.38;2.90;;;11.90;12.10;;;;;;5086598;28;20395;-74
2023/04/25 11:38:07;;;;;;;11.17;2.57;;;12.10;13.40;;;;;;5076720;28;20395;-76
2023/04/25 11:40:32;;;;;;;7.27;1.50;;;12.40;12.30;;;;;;5073667;28;20461;-75
2023/04/25 11:43:00;;;;;;;7.40;2.00;;;12.00;11.90;;;;;;5074918;28;20411;-74
2023/04/25 11:45:26;;;;;;;9.20;1.88;;;11.60;13.60;;;;;;5075435;28;20395;-75
2023/04/25 11:47:53;;;;;;;4.28;1.70;;;11.90;14.20;;;;;;5074305;28;20907;-75
2023/04/25 11:50:18;;;;;;;9.95;2.60;;;12.00;13.30;;;;;;5072813;28;20383;-73
2023/04/25 11:52:48;;;;;;;6.70;2.20;;;12.40;13.60;;;;;;5072738;28;20372;-75
2023/04/25 11:55:15;;;;;;;9.02;2.00;;;12.50;13.20;;;;;;5073117;28;20414;-76
2023/04/25 11:57:43;;;;;;;9.60;2.38;;;12.20;14.00;;;;;;5073638;28;20376;-75
2023/04/25 12:00:15;;;;;;;17.30;3.15;;;11.90;16.10;;;;;;5072328;28;20422;-73
2023/04/25 12:02:42;;;;;;;10.60;3.10;;;11.80;17.30;;;;;;5072095;28;20427;-75
2023/04/25 12:05:09;;;;;;;9.40;2.90;;;11.80;17.40;;;;;;5072660;28;20774;-73
2023/04/25 12:07:36;;;;;;;9.25;3.13;;;11.70;17.80;;;;;;5073086;28;20368;-76
2023/04/25 12:10:13;;;;;;;10.90;3.30;;;11.90;18.30;;;;;;5073244;28;20384;-74
2023/04/25 12:12:43;;;;;;;11.93;3.13;;;11.40;19.60;;;;;;5054832;28;20922;-74
2023/04/25 12:15:28;;;;;;;13.20;3.78;;;11.00;20.00;;;;;;5073636;28;20376;-74
2023/04/25 12:17:57;;;;;;;11.45;3.35;;;10.90;22.50;;;;;;5075588;28;20459;-76
2023/04/25 12:20:25;;;;;;;14.30;4.37;;;10.60;22.50;;;;;;5074507;28;20456;-75
2023/04/25 12:22:52;;;;;;;15.23;4.75;;;10.50;23.50;;;;;;5073098;28;20394;-76
2023/04/25 12:25:40;;;;;;;21.58;4.68;;;10.00;45.60;;;;;;5073916;28;20372;-75
2023/04/25 12:28:12;;;;;;;13.50;3.97;;;9.50;48.90;;;;;;5082167;28;20408;-72
2023/04/25 12:30:57;;;;;;;13.73;4.40;;;9.40;46.30;;;;;;5083622;28;20392;-72
2023/04/25 12:33:23;;;;;;;13.80;4.30;;;9.60;48.90;;;;;;5084241;28;20391;-73
2023/04/25 12:35:48;;;;;;;17.02;4.57;;;10.20;47.90;;;;;;5072425;28;20479;-73
2023/04/25 12:38:26;;;;;;;9.37;4.10;;;10.40;42.70;;;;;;5075207;28;20412;-73
2023/04/25 12:40:52;;;;;;;14.52;4.57;;;10.50;37.20;;;;;;5080806;28;20479;-73
2023/04/25 12:43:18;;;;;;;13.75;4.70;;;10.70;35.80;;;;;;5083270;28;20838;-73